Colorado AWOS List, Phone Numbers, Maps

USA |  
| Search AWOS

Rocky Mountain States: Montana | Wyoming | Colorado | New Mexico

Complete weather reports: Colorado

Legend: KFNL = METAR available Follow your local AWOS on AV Mobile = METAR available on AV Mobile
Station Colorado Location Frequency Phone
KAKOFAA ID AKO, ASOS, KAKO 171053Z AUTO 30007KT 10SM CLR 12/06 A3003 RMK AO2 SLP120 T01170061 Follow KAKO on AV Mobile COLORADO PLAINS REGIONAL 135.475 970-345-2320
KALSFAA ID ALS, ASOS, KALS 171052Z AUTO 00000KT 10SM CLR 09/05 A3028 Follow KALS on AV Mobile SAN LUIS VALLEY REGIONAL 135.175 719-589-5669
KASEFAA ID ASE, ASOS, KASE 171053Z AUTO 22007KT 10SM CLR 08/02 Follow KASE on AV Mobile ASPEN-PITKIN COUNTY AIRPORT 120.400 970-925-9168
KBKFFAA ID BKF, KBKF 171058Z 20010KT 10SM FEW200 15/04 A3010 Follow KBKF on AV Mobile Aurora, Buckley Air Force Base Airport
K7BMFAA ID 7BM, AWOS-3, K7BM 171114Z AUTO 20004KT 10SM CLR 13/M01 A3042 RMK AO2 Follow K7BM on AV Mobile Cottonwood Pass 132.050 303-512-4919
KBDUFAA ID BDU, AWOS-3, KBDU 171116Z AUTO 00000KT 10SM CLR 12/06 A3007 RMK AO2 Follow KBDU on AV Mobile Boulder Municipal Airport 118.825 303-541-9540
KAEJFAA ID AEJ, AWOS-3, KAEJ 171115Z AUTO 30006KT 10SM CLR 09/01 A3032 RMK AO2 T00900005 Follow KAEJ on AV Mobile Central Colorado Regional Airport 132.925 719-395-2599
KITRFAA ID ITR, ASOS, KITR 171053Z AUTO 25004KT 10SM CLR 10/08 A3001 RMK AO2 SLP112 T01000078 Follow KITR on AV Mobile Kit Carson County Airport 135.225 719-346-7036
K1V6FAA ID 1V6, AWOS-3, K1V6 171110Z AUTO 29009KT 10SM CLR 18/02 A3010 RMK AO2 Follow K1V6 on AV Mobile CANON CITY 120.025
KAFFFAA ID AFF, KAFF 171058Z AUTO 36009KT 10SM CLR 09/03 A3018 RMK AO2 SLP139 T00880029 Follow KAFF on AV Mobile Air Force Academy
KCOSFAA ID COS, ASOS, KCOS 171054Z 01008KT 10SM CLR 14/03 A3015 Follow KCOS on AV Mobile COLORADO SPRINGS MUNI 125.000 719-637-9696
KFLYFAA ID FLY, AWOS-3PT, KFLY 171115Z AUTO 29006KT 10SM CLR 11/03 A3020 RMK AO2 T01120030 Follow KFLY on AV Mobile Meadowlake Airport, Peyton, CO 118.450 719-683-5371
KCCUFAA ID CCU, AWOS-3, KCCU 171116Z AUTO 26008KT 10SM CLR 11/M02 A3057 RMK AO2 Follow KCCU on AV Mobile Copper Mountain, Red Cliff Pass 118.075 970-968-1715
KCEZFAA ID CEZ, ASOS, KCEZ 171053Z AUTO 00000KT 10SM CLR 11/09 A3017 RMK AO2 SLP153 T01110089 Follow KCEZ on AV Mobile CORTEZ MONTEZUMA COUNTY AIRPORT 135.625 970-564-0193
KCAGFAA ID CAG, ASOS, KCAG 171053Z AUTO 00000KT 10SM CLR 06/03 A3019 Follow KCAG on AV Mobile CRAIG MOFFAT AIRPORT 135.425 970-824-2373
KAJZFAA ID AJZ, AWOS-3, KAJZ 171115Z AUTO 05006KT 7SM CLR 14/06 A3013 RMK AO2 T01370056 Follow KAJZ on AV Mobile Blake Field Airport 134.000 970-874-3251
KDNRICAO ID KDNR Denver / Stapleton International, Co.
KAPAFAA ID APA, ASOS, KAPA 171053Z 18006KT 10SM FEW200 13/04 A3011 RMK AO2 SLP127 T01330039 Follow KAPA on AV Mobile DENVER CENTENNIAL AIRPORT 120.300 303-706-9098
KDENFAA ID DEN, ASOS, KDEN 171053Z 24012KT 10SM FEW200 15/04 A3008 Follow KDEN on AV Mobile DENVER INTERNATIONAL AIRPORT 125.600 303-342-0838
KFTGFAA ID FTG, AWOS-3, KFTG 171113Z AUTO 25008KT 10SM CLR 13/05 A3009 RMK AO2 Follow KFTG on AV Mobile Front Range Airport 119.025 303-261-9104
KBJCFAA ID BJC, AWOS-3, KBJC 171115Z AUTO 00000KT 10SM CLR 16/01 A3010 Follow KBJC on AV Mobile Rocky Mountain Metro Airport 126.250 720-887-8067
K4V5ICAO ID K4V5 Durango Aviation Weather Reporting Station
KDROFAA ID DRO, ASOS, KDRO 171053Z AUTO 00000KT 10SM CLR 11/07 A3022 RMK AO2 SLP156 T01110067 Follow KDRO on AV Mobile DURANGO-LA PLATA COUNTY AIRPORT 120.625 970-259-3579
KEGEFAA ID EGE, AWOS-3, KEGE 171115Z AUTO 12003KT 10SM CLR 07/04 A3028 Follow KEGE on AV Mobile Eagle County Regional 135.575 970-524-7386
CO90FAA ID CO90, ASOS, KAIB 171130Z AUTO 00000KT 10SM CLR 15/04 A3020 RMK AO2 Follow  on AV Mobile USAF Academy Bullseye Aux Airstrip 118.325 719-683-3346
K0COFAA ID 0CO, AWOS-3, K0CO 171115Z AUTO 31011KT 10SM CLR 04/03 A3061 RMK AO2 Follow K0CO on AV Mobile EMPIRE 134.325
KEIKFAA ID EIK, AWOS-3, KEIK 171115Z AUTO 20005KT 10SM CLR 09/06 A3007 RMK AO2 T00870062 Follow KEIK on AV Mobile Erie Municipal Airport 133.825 303-604-4339
KFCSFAA ID FCS, KFCS 171058Z AUTO 32008KT 10SM CLR 14/04 A3012 RMK AO2 SLP140 T01390038 Follow KFCS on AV Mobile Fort Carson
KFCLICAO ID KFCL Fort Collins Supplementary Aviation Weather Reporting Station
KFNLFAA ID FNL, AWOS-3, KFNL 171115Z AUTO 00000KT 10SM CLR 13/06 A3007 RMK AO1 Follow KFNL on AV Mobile Fort Collins/Loveland, Fort Collins-Loveland Municipal Airport 135.075 970-669-9187
KFMMFAA ID FMM, AWOS-3, KFMM 171115Z AUTO 20004KT 10SM CLR 10/05 A3002 RMK AO2 T01020053 Follow KFMM on AV Mobile Fort Morgan Municipal Airport 132.950 970-867-4823
KGNBFAA ID GNB, AWOS-1 Granby-Grand County Airport 119.925 970-887-1803
KGJTFAA ID GJT, ASOS, KGJT 171053Z AUTO 13009KT 10SM CLR 14/06 A3007 Follow KGJT on AV Mobile GRAND JUNCTION WALKER FIELD 118.550 970-245-7881
KGXYFAA ID GXY, AWOS-3, KGXY 171115Z AUTO 28004KT 10SM CLR 08/03 A3006 RMK AO1 Follow KGXY on AV Mobile Greeley, Greeley-Weld County Airport 135.175 970-352-3511
K2V9ICAO ID K2V9 Gunnison Aviation Weather Reporting Station
KGUCFAA ID GUC, AWOS-3, KGUC 171115Z AUTO 05003KT 10SM CLR 05/00 A3034 RMK AO1 Follow KGUC on AV Mobile Gunnison, Gunnison-Crested Butte Regional Airport 135.075 970-641-3240
KHDNFAA ID HDN, AWOS-3, KHDN 171115Z AUTO 12011KT 10SM CLR 09/01 A3020 RMK AO1 Follow KHDN on AV Mobile Hayden, Yampa Valley Airport 119.275 970-276-3690
KHEQFAA ID HEQ, AWOS-3, KHEQ 171115Z AUTO 27004KT 10SM CLR 11/08 A2998 RMK AO2 Follow KHEQ on AV Mobile Holyoke Airport 119.275 970-854-3679
K20VFAA ID 20V, AWOS-3, K20V 171115Z AUTO 00000KT 10SM CLR 02/00 A3033 RMK AO2 Follow K20V on AV Mobile Kremmling, Mc Elroy Airfield 118.425 970-724-9659
KLHXFAA ID LHX, ASOS, KLHX 171053Z AUTO 26006KT 10SM CLR 12/07 A3002 RMK AO2 SLP108 T01170072 Follow KLHX on AV Mobile LA JUNTA MUNICIPAL AIRPORT 135.525 719-384-5961
KVTPFAA ID VTP, AWOS-3, KVTP 061633Z AUTO 00000KT 10SM CLR 12/08 A3060 RMK AO2 Follow KVTP on AV Mobile La Veta Mountain, La Veta Pass 119.925 719-587-3120
KLAAFAA ID LAA, ASOS, KLAA 171053Z AUTO 26005KT 10SM CLR 11/10 A2998 RMK AO2 SLP106 T01110100 Follow KLAA on AV Mobile LAMAR MUNICIPAL AIRPORT 135.625 719-336-3854
KLXVFAA ID LXV, ASOS, KLXV 171053Z AUTO 00000KT 10SM CLR 03/M01 A3043 Follow KLXV on AV Mobile LEADVILLE LAKE CO 118.375 719-486-2735
KLICFAA ID LIC, ASOS, KLIC 171055Z AUTO 34005KT 10SM CLR 07/05 A3009 RMK AO2 SLP129 T00720050 Follow KLIC on AV Mobile LIMON MUNICIPAL AIRPORT 121.125 719-775-0515
KLMOFAA ID LMO, AWOS-3, KLMO 171114Z AUTO 00000KT 7SM CLR 11/07 A3008 RMK AO2 T01050066 Follow KLMO on AV Mobile Vance Brand Airport 120.000 303-684-7545
KEEOFAA ID EEO, ASOS, KEEO 171053Z AUTO 00000KT 10SM CLR 09/03 A3020 RMK AO2 SLP142 T00940033 Follow KEEO on AV Mobile MEEKER AIRPORT 135.525 970-878-5036
KMYPFAA ID MYP, AWOS-3, KMYP 171103Z AUTO 22010KT 10SM CLR 07/00 A3066 RMK AO2 Follow KMYP on AV Mobile Salida Mountain, Monarch Pass 124.175 719-539-4436
KMTJFAA ID MTJ, ASOS, KMTJ 171053Z AUTO 15007KT 10SM CLR 12/06 A3017 RMK AO2 SLP136 T01220056 Follow KMTJ on AV Mobile MONTROSE REGIONAL AIRPORT 135.225 970-249-1534
KMNHFAA ID MNH, AWOS-3, KMNH 171113Z AUTO 23007KT 10SM CLR 12/01 A3020 RMK AO2 Follow KMNH on AV Mobile Elbert Mountain, Monument Pass 134.375 303-648-3479
K3MWFAA ID 3MW, AWOS-3, K3MW 211630Z AUTO RMK AO2 TSNO PWINO Follow K3MW on AV Mobile Mount Werner 127.125 970-871-5640
KCRVICAO ID KCRV Nederland Mountain, Corona Pass
KAIBFAA ID AIB, AWOS-3, KAIB 171115Z AUTO 13006KT 10SM CLR 15/04 A3020 RMK AO2 Follow KAIB on AV Mobile Hopkins Field Airport 132.525 970-864-2325
KPSOFAA ID PSO, AWOS-3, KPSO 171115Z AUTO 00000KT 10SM CLR 09/05 A3029 RMK AO2 T00860050 Follow KPSO on AV Mobile Stevens Field Airport 127.175 970-731-0365
KPEFICAO ID KPEF Peterson Air Force Base
KPUXICAO ID KPUX Pueblo NEXRAD
KPUBFAA ID PUB, ASOS, KPUB 171053Z AUTO 25004KT 10SM CLR 13/05 A3005 Follow KPUB on AV Mobile PUEBLO MEMORIAL AIRPORT 125.250 719-948-2803
K1V1ICAO ID K1V1 Rifle Aviation Weather Reporting Station
KRILFAA ID RIL, ASOS, KRIL 171053Z AUTO 00000KT 10SM CLR 09/07 A3016 RMK AO2 SLP154 T00940067 Follow KRIL on AV Mobile RIFLE GARFIELD COUNTY RGNL 135.275 970-625-2206
K04VFAA ID 04V, AWOS-3, K04V 171115Z AUTO 33008KT 10SM CLR 08/00 A3031 RMK AO2 Follow K04V on AV Mobile Saguache, Saguache Municipal Airport 118.625 719-655-2229
KS29ICAO ID KS29 Salida
KANKFAA ID ANK, AWOS-3, KANK 171115Z AUTO 31003KT 10SM CLR 12/02 A3037 RMK AO1 T01210016 Follow KANK on AV Mobile Harriet Alexander Field Airport 133.850 719-539-5268
KSPDICAO ID KSPD, KSPD 171056Z AUTO 27005KT 13/11 A3002 RMK AO1 SLP105 T01330106 Follow KSPD on AV Mobile SPRINGFIELD COMANCHE NATL
KSBSFAA ID SBS, AWOS-3, KSBS 171114Z AUTO 00000KT 10SM CLR 07/02 A3024 RMK AO1 T00650020 Follow KSBS on AV Mobile Steamboat Springs 118.325 970-879-7794
KSTKFAA ID STK, AWOS-3, KSTK 171110Z AUTO 21003KT 10SM CLR 10/08 A2999 RMK AO2 Follow KSTK on AV Mobile Sterling Municipal Airport 118.525 970-526-3009
K5SMFAA ID 5SM, AWOS-3, K5SM 171118Z AUTO 00000KT 10SM CLR 13/00 A3050 RMK AO2 Follow K5SM on AV Mobile Sunlight 126.075 970-384-3380
KTEXFAA ID TEX, AWOS-3, KTEX 151358Z AUTO 00000KT 10SM CLR 10/03 A3049 RMK AO2 Follow KTEX on AV Mobile Telluride, Telluride Regional Airport 118.325 970-728-1534
KTADFAA ID TAD, ASOS, KTAD 171054Z AUTO 24013KT 10SM CLR 16/09 A3012 RMK AO2 SLP115 T01560089 Follow KTAD on AV Mobile Trinidad, Perry Stokes Airport 119.025 719-845-1156
K33VFAA ID 33V, AWOS-3, K33V 171115Z AUTO 00000KT 10SM BKN110 05/00 A3030 RMK AO2 Follow K33V on AV Mobile WALDEN 118.625 970-723-4513
4V1FAA ID 4V1, AWOS-3, KAIB 171130Z AUTO 00000KT 10SM CLR 15/04 A3020 RMK AO2 Follow  on AV Mobile Spanish Peaks Airfield 123.600 719-738-1053
K4BMFAA ID 4BM, AWOS-3, K4BM 260156Z AUTO 20008KT 7SM RA SCT035 SCT055 BKN090 08/03 A3056 RMK AO2 Follow K4BM on AV Mobile Wilkerson Pass 132.3 303-512-4418
KC96ICAO ID KC96 Winter Park Resort
KCPWFAA ID CPW, AWOS-3, KCPW 171119Z AUTO 04009KT 10SM CLR 07/00 A3054 RMK AO2 Follow KCPW on AV Mobile Pagosa Springs, Wolf Creek Pass 121.125 970-264-2180
K2V5FAA ID 2V5, AWOS-3, K2V5 171115Z AUTO 25007KT 10SM CLR 11/09 A2999 RMK AO2 T01050090 Follow K2V5 on AV Mobile Wray Municipal Airport 118.250 970-332-5930

Click on the AV Mobile icon AV Mobile icon by any station to follow that AWOS feed on AirportView.net Mobile.

Legend: Commercial service airport with AWOS Commercial Airport AWOSNon-Commercial service airport with AWOS Non-Commercial Airport AWOS
Airport AWOS - Click symbol for weather report Fort Morgan Municipal Airport KFMM 171115Z AUTO 20004KT 10SM CLR 10/05 A3002 RMK AO2 T01020053 Hopkins Field Airport KAIB 171115Z AUTO 13006KT 10SM CLR 15/04 A3020 RMK AO2 Telluride, Telluride Regional Airport KTEX 151358Z AUTO 00000KT 10SM CLR 10/03 A3049 RMK AO2 Greeley, Greeley-Weld County Airport KGXY 171115Z AUTO 28004KT 10SM CLR 08/03 A3006 RMK AO1 Front Range Airport KFTG 171113Z AUTO 25008KT 10SM CLR 13/05 A3009 RMK AO2 Rocky Mountain Metro Airport KBJC 171115Z AUTO 00000KT 10SM CLR 16/01 A3010 DENVER CENTENNIAL AIRPORT KAPA 171053Z 18006KT 10SM FEW200 13/04 A3011 RMK AO2 SLP127 T01330039 DENVER INTERNATIONAL AIRPORT KDEN 171053Z 24012KT 10SM FEW200 15/04 A3008 Fort Collins/Loveland, Fort Collins-Loveland Municipal Airport KFNL 171115Z AUTO 00000KT 10SM CLR 13/06 A3007 RMK AO1 Boulder Municipal Airport KBDU 171116Z AUTO 00000KT 10SM CLR 12/06 A3007 RMK AO2 Vance Brand Airport KLMO 171114Z AUTO 00000KT 7SM CLR 11/07 A3008 RMK AO2 T01050066 Sterling Municipal Airport KSTK 171110Z AUTO 21003KT 10SM CLR 10/08 A2999 RMK AO2 Holyoke Airport KHEQ 171115Z AUTO 27004KT 10SM CLR 11/08 A2998 RMK AO2 COLORADO PLAINS REGIONAL KAKO 171053Z AUTO 30007KT 10SM CLR 12/06 A3003 RMK AO2 SLP120 T01170061 Kit Carson County Airport KITR 171053Z AUTO 25004KT 10SM CLR 10/08 A3001 RMK AO2 SLP112 T01000078 LIMON MUNICIPAL AIRPORT KLIC 171055Z AUTO 34005KT 10SM CLR 07/05 A3009 RMK AO2 SLP129 T00720050 COLORADO SPRINGS MUNI KCOS 171054Z 01008KT 10SM CLR 14/03 A3015 LAMAR MUNICIPAL AIRPORT KLAA 171053Z AUTO 26005KT 10SM CLR 11/10 A2998 RMK AO2 SLP106 T01110100 LA JUNTA MUNICIPAL AIRPORT KLHX 171053Z AUTO 26006KT 10SM CLR 12/07 A3002 RMK AO2 SLP108 T01170072 Trinidad, Perry Stokes Airport KTAD 171054Z AUTO 24013KT 10SM CLR 16/09 A3012 RMK AO2 SLP115 T01560089 PUEBLO MEMORIAL AIRPORT KPUB 171053Z AUTO 25004KT 10SM CLR 13/05 A3005 CANON CITY 1V6 SAN LUIS VALLEY REGIONAL KALS 171052Z AUTO 00000KT 10SM CLR 09/05 A3028 Saguache, Saguache Municipal Airport K04V 171115Z AUTO 33008KT 10SM CLR 08/00 A3031 RMK AO2 Granby-Grand County Airport KGNB WALDEN 33V Steamboat Springs KSBS 171114Z AUTO 00000KT 10SM CLR 07/02 A3024 RMK AO1 T00650020 Hayden, Yampa Valley Airport KHDN 171115Z AUTO 12011KT 10SM CLR 09/01 A3020 RMK AO1 Kremmling, Mc Elroy Airfield K20V 171115Z AUTO 00000KT 10SM CLR 02/00 A3033 RMK AO2 LEADVILLE LAKE CO KLXV 171053Z AUTO 00000KT 10SM CLR 03/M01 A3043 Eagle County Regional KEGE 171115Z AUTO 12003KT 10SM CLR 07/04 A3028 CRAIG MOFFAT AIRPORT KCAG 171053Z AUTO 00000KT 10SM CLR 06/03 A3019 MEEKER AIRPORT KEEO 171053Z AUTO 00000KT 10SM CLR 09/03 A3020 RMK AO2 SLP142 T00940033 ASPEN-PITKIN COUNTY AIRPORT KASE 171053Z AUTO 22007KT 10SM CLR 08/02 Gunnison, Gunnison-Crested Butte Regional Airport KGUC 171115Z AUTO 05003KT 10SM CLR 05/00 A3034 RMK AO1 DURANGO-LA PLATA COUNTY AIRPORT  KDRO 171053Z AUTO 00000KT 10SM CLR 11/07 A3022 RMK AO2 SLP156 T01110067 Stevens Field Airport KPSO 171115Z AUTO 00000KT 10SM CLR 09/05 A3029 RMK AO2 T00860050 CORTEZ MONTEZUMA COUNTY AIRPORT  KCEZ 171053Z AUTO 00000KT 10SM CLR 11/09 A3017 RMK AO2 SLP153 T01110089 MONTROSE REGIONAL AIRPORT KMTJ 171053Z AUTO 15007KT 10SM CLR 12/06 A3017 RMK AO2 SLP136 T01220056 RIFLE GARFIELD COUNTY RGNL KRIL 171053Z AUTO 00000KT 10SM CLR 09/07 A3016 RMK AO2 SLP154 T00940067 GRAND JUNCTION WALKER FIELD KGJT 171053Z AUTO 13009KT 10SM CLR 14/06 A3007 Blake Field Airport KAJZ 171115Z AUTO 05006KT 7SM CLR 14/06 A3013 RMK AO2 T01370056 Central Colorado Regional Airport KAEJ 171115Z AUTO 30006KT 10SM CLR 09/01 A3032 RMK AO2 T00900005 Harriet Alexander Field Airport KANK 171115Z AUTO 31003KT 10SM CLR 12/02 A3037 RMK AO1 T01210016 Erie Municipal Airport KEIK 171115Z AUTO 20005KT 10SM CLR 09/06 A3007 RMK AO2 T00870062 Wray Municipal Airport K2V5 171115Z AUTO 25007KT 10SM CLR 11/09 A2999 RMK AO2 T01050090
Legend: High Mountain AWOS Mountain Pass AWOS
Mountain Pass AWOS - Click symbol for weather report Pagosa Springs, Wolf Creek Pass KCPW 171119Z AUTO 04009KT 10SM CLR 07/00 A3054 RMK AO2 Saguache, Saguache Municipal Airport K04V 171115Z AUTO 33008KT 10SM CLR 08/00 A3031 RMK AO2 Kremmling, Mc Elroy Airfield K20V 171115Z AUTO 00000KT 10SM CLR 02/00 A3033 RMK AO2 La Veta Mountain, La Veta Pass KVTP 061633Z AUTO 00000KT 10SM CLR 12/08 A3060 RMK AO2 Salida Mountain, Monarch Pass KMYP 171103Z AUTO 22010KT 10SM CLR 07/00 A3066 RMK AO2 Cottonwood Pass K7BM 171114Z AUTO 20004KT 10SM CLR 13/M01 A3042 RMK AO2 Elbert Mountain, Monument Pass KMNH 171113Z AUTO 23007KT 10SM CLR 12/01 A3020 RMK AO2 Wilkerson Pass K4BM 260156Z AUTO 20008KT 7SM RA SCT035 SCT055 BKN090 08/03 A3056 RMK AO2 Copper Mountain, Red Cliff Pass KCCU 171116Z AUTO 26008KT 10SM CLR 11/M02 A3057 RMK AO2 EMPIRE 0CO Sunlight K5SM 171118Z AUTO 00000KT 10SM CLR 13/00 A3050 RMK AO2 Mount Werner K3MW 211630Z AUTO RMK AO2 TSNO PWINO
Garmin aera 796 $1999 at Avionics Specialists LLC
Bose A20 Aviation Headsets $995 at Avionics Specialists LLC